createdAt,value
2023-04-26T00:03:19.210Z,97346.41
2023-04-26T00:08:23.972Z,97345.41
2023-04-26T00:13:27.263Z,97343.63
2023-04-26T00:18:31.720Z,97347.19
2023-04-26T00:23:36.728Z,97346.69
2023-04-26T00:28:39.956Z,97353.53
2023-04-26T00:33:44.321Z,97361.38
2023-04-26T00:38:49.281Z,97365.69
2023-04-26T00:43:52.627Z,97359.94
2023-04-26T00:48:56.332Z,97362.28
2023-04-26T00:54:01.338Z,97361.03
2023-04-26T00:59:04.917Z,97362.44
2023-04-26T01:04:08.484Z,97360.44
2023-04-26T01:09:15.496Z,97361.25
2023-04-26T01:14:19.707Z,97361.38
2023-04-26T01:19:23.505Z,97368.28
2023-04-26T01:24:28.537Z,97369.84
2023-04-26T01:29:33.200Z,97371.22
2023-04-26T01:34:37.383Z,97365.53
2023-04-26T01:39:42.278Z,97369.81
2023-04-26T01:44:45.818Z,97372.63
2023-04-26T01:49:48.997Z,97367.47
2023-04-26T01:54:53.853Z,97363.69
2023-04-26T01:59:57.224Z,97375.63
2023-04-26T02:05:02.465Z,97376.97
2023-04-26T02:10:08.535Z,97370.22
2023-04-26T02:15:12.762Z,97366.09
2023-04-26T02:20:16.637Z,97374.59
2023-04-26T02:25:21.643Z,97359.66
2023-04-26T02:30:24.930Z,97367.50
2023-04-26T02:35:28.452Z,97365.09
2023-04-26T02:40:33.196Z,97358.84
2023-04-26T02:45:42.492Z,97361.91
2023-04-26T02:50:48.684Z,97356.63
2023-04-26T02:55:54.317Z,97362.44
2023-04-26T03:01:01.027Z,97360.63
2023-04-26T03:06:05.572Z,97356.50
2023-04-26T03:11:10.712Z,97362.91
2023-04-26T03:16:14.303Z,97359.00
2023-04-26T03:21:17.787Z,97366.84
2023-04-26T03:26:22.567Z,97376.53
2023-04-26T03:31:26.105Z,97371.00
2023-04-26T03:36:29.902Z,97383.22
2023-04-26T03:41:37.198Z,97387.22
2023-04-26T03:46:42.139Z,97390.41
2023-04-26T03:51:45.582Z,97390.13
2023-04-26T03:56:50.317Z,97391.22
2023-04-26T04:01:54.220Z,97393.31
2023-04-26T04:06:57.786Z,97385.03
2023-04-26T04:12:03.197Z,97389.97
2023-04-26T04:17:07.584Z,97400.53
2023-04-26T04:22:10.916Z,97404.81
2023-04-26T04:27:16.769Z,97401.50
2023-04-26T04:32:23.975Z,97409.91
2023-04-26T04:37:29.567Z,97412.44
2023-04-26T04:42:35.134Z,97416.66
2023-04-26T04:47:41.194Z,97421.38
2023-04-26T04:52:44.663Z,97413.38
2023-04-26T04:57:49.702Z,97416.75
2023-04-26T05:02:53.449Z,97421.38
2023-04-26T05:07:57.138Z,97427.25
2023-04-26T05:13:02.074Z,97420.41
2023-04-26T05:18:06.081Z,97419.38
2023-04-26T05:23:09.520Z,97428.94
2023-04-26T05:28:14.458Z,97427.69
2023-04-26T05:33:36.023Z,97435.81
2023-04-26T05:38:54.275Z,97447.78
2023-04-26T05:43:59.168Z,97454.22
2023-04-26T05:49:02.819Z,97453.09
2023-04-26T05:54:06.157Z,97459.28
2023-04-26T05:59:12.230Z,97455.75
2023-04-26T06:04:15.737Z,97455.34
2023-04-26T06:09:33.486Z,97445.25
2023-04-26T06:14:38.150Z,97449.19
2023-04-26T06:19:44.748Z,97452.50
2023-04-26T06:24:48.588Z,97457.81
2023-04-26T06:29:53.261Z,97450.28
2023-04-26T06:34:57.500Z,97446.03
2023-04-26T06:40:01.582Z,97444.03
2023-04-26T06:45:07.222Z,97443.16
2023-04-26T06:50:12.315Z,97441.09
2023-04-26T06:55:15.728Z,97429.25
2023-04-26T07:00:21.480Z,97437.25
2023-04-26T07:05:24.892Z,97443.00
2023-04-26T07:10:28.235Z,97441.06
2023-04-26T07:15:33.178Z,97445.66
2023-04-26T07:20:36.451Z,97447.06
2023-04-26T07:25:39.945Z,97445.97
2023-04-26T07:30:45.011Z,97450.50
2023-04-26T07:35:56.601Z,97452.09
2023-04-26T07:41:01.337Z,97456.13
2023-04-26T07:46:06.076Z,97467.00
2023-04-26T07:51:10.094Z,97448.50
2023-04-26T07:56:13.687Z,97449.41
2023-04-26T08:01:18.583Z,97456.53
2023-04-26T08:06:22.430Z,97462.56
2023-04-26T08:11:25.985Z,97469.66
2023-04-26T08:16:31.091Z,97464.47
2023-04-26T08:21:34.573Z,97466.09
2023-04-26T08:26:37.834Z,97482.44
2023-04-26T08:31:42.941Z,97467.00
2023-04-26T08:36:46.789Z,97466.84
2023-04-26T08:41:54.281Z,97469.13
2023-04-26T08:47:07.829Z,97484.31
2023-04-26T08:52:13.818Z,97482.22
2023-04-26T08:57:17.621Z,97479.91
2023-04-26T09:02:23.884Z,97484.28
2023-04-26T09:07:33.840Z,97466.50
2023-04-26T09:12:37.176Z,97466.84
2023-04-26T09:17:42.256Z,97470.44
2023-04-26T09:22:45.601Z,97463.66
2023-04-26T09:27:48.970Z,97473.31
2023-04-26T09:32:55.969Z,97472.31
2023-04-26T09:38:07.962Z,97477.47
2023-04-26T09:43:18.945Z,97466.75
2023-04-26T09:48:25.990Z,97470.13
2023-04-26T09:53:31.132Z,97464.66
2023-04-26T09:58:34.592Z,97462.38
2023-04-26T10:03:39.578Z,97471.84
2023-04-26T10:08:43.592Z,97474.75
2023-04-26T10:13:46.879Z,97474.19
2023-04-26T10:18:51.830Z,97463.84
2023-04-26T10:23:55.600Z,97473.75
2023-04-26T10:29:02.549Z,97478.69
2023-04-26T10:34:21.530Z,97462.63
2023-04-26T10:39:25.968Z,97457.13
2023-04-26T10:44:45.864Z,97463.78
2023-04-26T10:49:51.896Z,97452.38
2023-04-26T10:54:57.018Z,97450.34
2023-04-26T11:00:32.019Z,97443.38
2023-04-26T11:05:55.463Z,97444.56
2023-04-26T11:11:06.718Z,97442.38
2023-04-26T11:16:11.153Z,97444.09
2023-04-26T11:21:18.808Z,97445.69
2023-04-26T11:26:22.114Z,97433.75
2023-04-26T11:31:25.371Z,97433.34
2023-04-26T11:36:30.027Z,97418.00
2023-04-26T11:41:33.375Z,97409.41
2023-04-26T11:46:36.669Z,97406.91
2023-04-26T11:51:41.775Z,97412.25
2023-04-26T11:56:45.482Z,97415.72
2023-04-26T12:01:52.549Z,97425.81
2023-04-26T12:06:57.899Z,97428.22
2023-04-26T12:12:03.880Z,97414.38
2023-04-26T12:17:08.603Z,97414.34
2023-04-26T12:22:13.317Z,97424.00
2023-04-26T12:27:22.939Z,97415.72
2023-04-26T12:32:27.023Z,97413.50
2023-04-26T12:37:31.723Z,97409.88
2023-04-26T12:42:35.048Z,97417.22
2023-04-26T12:47:38.609Z,97423.06
2023-04-26T12:52:45.037Z,97408.88
2023-04-26T12:57:48.921Z,97415.78
2023-04-26T13:02:52.545Z,97411.63
2023-04-26T13:07:57.387Z,97411.59
2023-04-26T13:13:00.626Z,97414.41
2023-04-26T13:18:03.882Z,97415.84
2023-04-26T13:23:09.424Z,97425.66
2023-04-26T13:28:13.036Z,97417.50
2023-04-26T13:33:16.448Z,97418.22
2023-04-26T13:38:21.171Z,97416.69
2023-04-26T13:43:24.833Z,97424.75
2023-04-26T13:48:28.184Z,97412.59
2023-04-26T13:53:32.763Z,97419.75
2023-04-26T13:58:36.139Z,97418.22
2023-04-26T14:03:39.597Z,97432.97
2023-04-26T14:08:45.643Z,97435.91
2023-04-26T14:13:48.883Z,97422.81
2023-04-26T14:18:52.359Z,97427.28
2023-04-26T14:23:58.286Z,97422.56
2023-04-26T14:29:02.285Z,97415.69
2023-04-26T14:34:05.535Z,97412.97
2023-04-26T14:39:10.400Z,97411.06
2023-04-26T14:44:13.682Z,97425.91
2023-04-26T14:49:16.968Z,97423.19
2023-04-26T14:54:21.752Z,97428.66
2023-04-26T14:59:25.217Z,97436.09
2023-04-26T15:04:28.858Z,97435.81
2023-04-26T15:09:33.915Z,97440.75
2023-04-26T15:14:37.357Z,97439.19
2023-04-26T15:19:41.062Z,97425.84
2023-04-26T15:24:45.938Z,97432.38
2023-04-26T15:30:04.829Z,97425.56
2023-04-26T15:35:09.325Z,97419.13
2023-04-26T15:40:14.686Z,97419.06
2023-04-26T15:45:17.900Z,97424.69
2023-04-26T15:50:21.492Z,97418.47
2023-04-26T15:55:26.263Z,97417.22
2023-04-26T16:00:31.801Z,97415.03
2023-04-26T16:05:35.427Z,97419.09
2023-04-26T16:10:41.169Z,97418.50
2023-04-26T16:15:45.443Z,97415.00
2023-04-26T16:20:48.691Z,97416.94
2023-04-26T16:25:56.297Z,97411.78
2023-04-26T16:30:59.853Z,97416.81
2023-04-26T16:36:03.724Z,97418.38
2023-04-26T16:41:08.791Z,97427.28
2023-04-26T16:46:12.307Z,97419.94
2023-04-26T16:51:15.977Z,97417.63
2023-04-26T16:56:20.977Z,97423.28
2023-04-26T17:01:24.341Z,97429.03
2023-04-26T17:06:27.616Z,97440.00
2023-04-26T17:11:32.505Z,97441.50
2023-04-26T17:16:35.875Z,97457.00
2023-04-26T17:21:39.602Z,97457.31
2023-04-26T17:26:44.747Z,97456.66
2023-04-26T17:31:48.203Z,97462.00
2023-04-26T17:36:54.470Z,97469.00
2023-04-26T17:41:59.112Z,97474.63
2023-04-26T17:47:04.110Z,97489.28
2023-04-26T17:52:08.080Z,97485.09
2023-04-26T17:57:13.122Z,97487.50
2023-04-26T18:02:16.831Z,97475.13
2023-04-26T18:07:20.736Z,97488.13
2023-04-26T18:12:26.048Z,97484.69
2023-04-26T18:17:29.648Z,97496.34
2023-04-26T18:22:33.423Z,97500.88
2023-04-26T18:27:38.572Z,97509.25
2023-04-26T18:32:41.871Z,97516.59
2023-04-26T18:37:45.690Z,97521.06
2023-04-26T18:42:50.897Z,97521.63
2023-04-26T18:47:55.349Z,97525.16
2023-04-26T18:52:58.899Z,97529.28
2023-04-26T18:58:03.864Z,97529.31
2023-04-26T19:03:07.435Z,97536.53
2023-04-26T19:08:11.901Z,97549.44
2023-04-26T19:13:16.555Z,97555.44
2023-04-26T19:18:19.860Z,97562.41
2023-04-26T19:23:23.312Z,97568.59
2023-04-26T19:28:28.073Z,97565.91
2023-04-26T19:33:32.386Z,97560.50
2023-04-26T19:38:35.814Z,97563.97
2023-04-26T19:43:40.640Z,97559.69
2023-04-26T19:48:44.427Z,97565.50
2023-04-26T19:53:48.977Z,97558.00
2023-04-26T19:58:54.166Z,97565.28
2023-04-26T20:03:57.676Z,97563.09
2023-04-26T20:09:01.623Z,97567.97
2023-04-26T20:14:06.482Z,97571.47
2023-04-26T20:19:10.314Z,97582.47
2023-04-26T20:24:13.723Z,97579.72
2023-04-26T20:29:18.365Z,97590.06
2023-04-26T20:34:21.997Z,97586.34
2023-04-26T20:39:28.266Z,97579.63
2023-04-26T20:44:33.250Z,97573.66
2023-04-26T20:49:36.469Z,97580.63
2023-04-26T20:54:39.995Z,97578.38
2023-04-26T20:59:46.372Z,97581.63
2023-04-26T21:04:49.640Z,97577.31
2023-04-26T21:09:53.512Z,97573.75
2023-04-26T21:14:58.127Z,97582.47
2023-04-26T21:20:01.391Z,97581.69
2023-04-26T21:25:04.965Z,97578.28
2023-04-26T21:30:11.282Z,97580.75
2023-04-26T21:35:14.491Z,97571.97
2023-04-26T21:40:17.866Z,97580.44
2023-04-26T21:45:22.470Z,97580.63
2023-04-26T21:50:25.775Z,97579.13
2023-04-26T21:55:29.044Z,97585.78
2023-04-26T22:00:33.728Z,97578.53
2023-04-26T22:05:37.193Z,97579.53
2023-04-26T22:10:40.586Z,97583.41
2023-04-26T22:15:45.261Z,97572.38
2023-04-26T22:20:48.471Z,97578.06
2023-04-26T22:25:52.385Z,97578.78
2023-04-26T22:30:57.020Z,97584.69
2023-04-26T22:36:00.337Z,97586.31
2023-04-26T22:41:04.304Z,97583.25
2023-04-26T22:46:08.957Z,97595.19
2023-04-26T22:51:12.416Z,97587.22
2023-04-26T22:56:15.826Z,97595.91
2023-04-26T23:01:20.544Z,97598.94
2023-04-26T23:06:23.784Z,97590.19
2023-04-26T23:11:27.817Z,97584.88
2023-04-26T23:16:33.038Z,97592.00
2023-04-26T23:21:36.359Z,97588.41
2023-04-26T23:26:39.718Z,97591.03
2023-04-26T23:31:44.281Z,97598.31
2023-04-26T23:36:47.486Z,97596.75
2023-04-26T23:41:50.815Z,97606.63
2023-04-26T23:46:55.597Z,97608.13
2023-04-26T23:51:59.129Z,97610.03
2023-04-26T23:57:04.144Z,97609.34
